sensor_id;sensor_type;location;lat;lon;timestamp;temperature;humidity
48007;DHT22;33771;48.180;11.400;2022-07-10T00:01:04;17.30;99.90
48007;DHT22;33771;48.180;11.400;2022-07-10T00:03:30;17.30;99.90
48007;DHT22;33771;48.180;11.400;2022-07-10T00:05:55;17.30;99.90
48007;DHT22;33771;48.180;11.400;2022-07-10T00:08:22;17.20;99.90
48007;DHT22;33771;48.180;11.400;2022-07-10T00:10:47;17.20;99.90
48007;DHT22;33771;48.180;11.400;2022-07-10T00:13:13;17.20;99.90
48007;DHT22;33771;48.180;11.400;2022-07-10T00:15:39;17.20;99.90
48007;DHT22;33771;48.180;11.400;2022-07-10T00:18:04;17.20;99.90
48007;DHT22;33771;48.180;11.400;2022-07-10T00:20:30;17.20;99.90
48007;DHT22;33771;48.180;11.400;2022-07-10T00:22:55;17.20;99.90
48007;DHT22;33771;48.180;11.400;2022-07-10T00:25:21;17.20;99.90
48007;DHT22;33771;48.180;11.400;2022-07-10T00:27:46;17.20;99.90
48007;DHT22;33771;48.180;11.400;2022-07-10T00:30:12;17.20;99.90
48007;DHT22;33771;48.180;11.400;2022-07-10T00:32:38;17.10;99.90
48007;DHT22;33771;48.180;11.400;2022-07-10T00:35:04;17.00;99.90
48007;DHT22;33771;48.180;11.400;2022-07-10T00:37:30;16.90;99.90
48007;DHT22;33771;48.180;11.400;2022-07-10T00:39:56;16.80;99.90
48007;DHT22;33771;48.180;11.400;2022-07-10T00:42:22;16.70;99.90
48007;DHT22;33771;48.180;11.400;2022-07-10T00:44:47;16.50;99.90
48007;DHT22;33771;48.180;11.400;2022-07-10T00:47:13;16.50;99.90
48007;DHT22;33771;48.180;11.400;2022-07-10T00:49:42;16.40;99.90
48007;DHT22;33771;48.180;11.400;2022-07-10T00:52:12;16.30;99.90
48007;DHT22;33771;48.180;11.400;2022-07-10T00:54:38;16.20;99.90
48007;DHT22;33771;48.180;11.400;2022-07-10T00:57:05;16.10;99.90
48007;DHT22;33771;48.180;11.400;2022-07-10T00:59:31;16.00;99.90
48007;DHT22;33771;48.180;11.400;2022-07-10T01:01:57;16.00;99.90
48007;DHT22;33771;48.180;11.400;2022-07-10T01:04:22;15.90;99.90
48007;DHT22;33771;48.180;11.400;2022-07-10T01:06:49;15.90;99.90
48007;DHT22;33771;48.180;11.400;2022-07-10T01:09:14;15.90;99.90
48007;DHT22;33771;48.180;11.400;2022-07-10T01:11:40;15.90;99.90
48007;DHT22;33771;48.180;11.400;2022-07-10T01:14:06;15.80;99.90
48007;DHT22;33771;48.180;11.400;2022-07-10T01:16:31;15.80;99.90
48007;DHT22;33771;48.180;11.400;2022-07-10T01:18:58;15.80;99.90
48007;DHT22;33771;48.180;11.400;2022-07-10T01:21:25;15.80;99.90
48007;DHT22;33771;48.180;11.400;2022-07-10T01:23:51;15.80;99.90
48007;DHT22;33771;48.180;11.400;2022-07-10T01:26:17;15.70;99.90
48007;DHT22;33771;48.180;11.400;2022-07-10T01:28:43;15.70;99.90
48007;DHT22;33771;48.180;11.400;2022-07-10T01:31:08;15.70;99.90
48007;DHT22;33771;48.180;11.400;2022-07-10T01:33:34;15.70;99.90
48007;DHT22;33771;48.180;11.400;2022-07-10T01:35:59;15.70;99.90
48007;DHT22;33771;48.180;11.400;2022-07-10T01:38:25;15.70;99.90
48007;DHT22;33771;48.180;11.400;2022-07-10T01:40:50;15.70;99.90
48007;DHT22;33771;48.180;11.400;2022-07-10T01:43:16;15.60;99.90
48007;DHT22;33771;48.180;11.400;2022-07-10T01:45:41;15.60;99.90
48007;DHT22;33771;48.180;11.400;2022-07-10T01:48:08;15.60;99.90
48007;DHT22;33771;48.180;11.400;2022-07-10T01:50:34;15.60;99.90
48007;DHT22;33771;48.180;11.400;2022-07-10T01:53:00;15.60;99.90
48007;DHT22;33771;48.180;11.400;2022-07-10T01:55:25;15.50;99.90
48007;DHT22;33771;48.180;11.400;2022-07-10T01:57:51;15.50;99.90
48007;DHT22;33771;48.180;11.400;2022-07-10T02:00:16;15.50;99.90
48007;DHT22;33771;48.180;11.400;2022-07-10T02:02:42;15.50;99.90
48007;DHT22;33771;48.180;11.400;2022-07-10T02:05:28;15.50;99.90
48007;DHT22;33771;48.180;11.400;2022-07-10T02:07:53;15.40;99.90
48007;DHT22;33771;48.180;11.400;2022-07-10T02:10:21;15.40;99.90
48007;DHT22;33771;48.180;11.400;2022-07-10T02:12:47;15.50;99.90
48007;DHT22;33771;48.180;11.400;2022-07-10T02:15:12;15.40;99.90
48007;DHT22;33771;48.180;11.400;2022-07-10T02:17:38;15.40;99.90
48007;DHT22;33771;48.180;11.400;2022-07-10T02:20:04;15.40;99.90
48007;DHT22;33771;48.180;11.400;2022-07-10T02:22:29;15.40;99.90
48007;DHT22;33771;48.180;11.400;2022-07-10T02:24:55;15.40;99.90
48007;DHT22;33771;48.180;11.400;2022-07-10T02:27:20;15.30;99.90
48007;DHT22;33771;48.180;11.400;2022-07-10T02:29:46;15.30;99.90
48007;DHT22;33771;48.180;11.400;2022-07-10T02:32:11;15.30;99.90
48007;DHT22;33771;48.180;11.400;2022-07-10T02:34:37;15.20;99.90
48007;DHT22;33771;48.180;11.400;2022-07-10T02:37:03;15.20;99.90
48007;DHT22;33771;48.180;11.400;2022-07-10T02:39:29;15.20;99.90
48007;DHT22;33771;48.180;11.400;2022-07-10T02:41:54;15.20;99.90
48007;DHT22;33771;48.180;11.400;2022-07-10T02:44:20;15.10;99.90
48007;DHT22;33771;48.180;11.400;2022-07-10T02:46:45;15.10;99.90
48007;DHT22;33771;48.180;11.400;2022-07-10T02:49:11;15.10;99.90
48007;DHT22;33771;48.180;11.400;2022-07-10T02:51:36;15.00;99.90
48007;DHT22;33771;48.180;11.400;2022-07-10T02:54:02;15.00;99.90
48007;DHT22;33771;48.180;11.400;2022-07-10T02:56:28;15.00;99.90
48007;DHT22;33771;48.180;11.400;2022-07-10T02:58:53;14.90;99.90
48007;DHT22;33771;48.180;11.400;2022-07-10T03:01:19;14.90;99.90
48007;DHT22;33771;48.180;11.400;2022-07-10T03:03:44;14.90;99.90
48007;DHT22;33771;48.180;11.400;2022-07-10T03:06:10;14.90;99.90
48007;DHT22;33771;48.180;11.400;2022-07-10T03:08:35;14.80;99.90
48007;DHT22;33771;48.180;11.400;2022-07-10T03:11:01;14.80;99.90
48007;DHT22;33771;48.180;11.400;2022-07-10T03:13:26;14.80;99.90
48007;DHT22;33771;48.180;11.400;2022-07-10T03:15:54;14.70;99.90
48007;DHT22;33771;48.180;11.400;2022-07-10T03:18:20;14.70;99.90
48007;DHT22;33771;48.180;11.400;2022-07-10T03:20:45;14.70;99.90
48007;DHT22;33771;48.180;11.400;2022-07-10T03:23:11;14.60;99.90
48007;DHT22;33771;48.180;11.400;2022-07-10T03:25:36;14.60;99.90
48007;DHT22;33771;48.180;11.400;2022-07-10T03:28:02;14.50;99.90
48007;DHT22;33771;48.180;11.400;2022-07-10T03:30:27;14.50;99.90
48007;DHT22;33771;48.180;11.400;2022-07-10T03:32:53;14.40;99.90
48007;DHT22;33771;48.180;11.400;2022-07-10T03:35:18;14.40;99.90
48007;DHT22;33771;48.180;11.400;2022-07-10T03:37:44;14.40;99.90
48007;DHT22;33771;48.180;11.400;2022-07-10T03:40:10;14.40;99.90
48007;DHT22;33771;48.180;11.400;2022-07-10T03:42:35;14.40;99.90
48007;DHT22;33771;48.180;11.400;2022-07-10T03:45:01;14.40;99.90
48007;DHT22;33771;48.180;11.400;2022-07-10T03:47:26;14.30;99.90
48007;DHT22;33771;48.180;11.400;2022-07-10T03:49:52;14.30;99.90
48007;DHT22;33771;48.180;11.400;2022-07-10T03:52:17;14.30;99.90
48007;DHT22;33771;48.180;11.400;2022-07-10T03:54:43;14.30;99.90
48007;DHT22;33771;48.180;11.400;2022-07-10T03:57:09;14.30;99.90
48007;DHT22;33771;48.180;11.400;2022-07-10T03:59:53;14.30;99.90
48007;DHT22;33771;48.180;11.400;2022-07-10T04:02:18;14.30;99.90
48007;DHT22;33771;48.180;11.400;2022-07-10T04:04:44;14.30;99.90
48007;DHT22;33771;48.180;11.400;2022-07-10T04:07:10;14.40;99.90
48007;DHT22;33771;48.180;11.400;2022-07-10T04:09:37;14.40;99.90
48007;DHT22;33771;48.180;11.400;2022-07-10T04:12:03;14.40;99.90
48007;DHT22;33771;48.180;11.400;2022-07-10T04:14:29;14.50;99.90
48007;DHT22;33771;48.180;11.400;2022-07-10T04:16:54;14.50;99.90
48007;DHT22;33771;48.180;11.400;2022-07-10T04:19:20;14.50;99.90
48007;DHT22;33771;48.180;11.400;2022-07-10T04:21:47;14.60;99.90
48007;DHT22;33771;48.180;11.400;2022-07-10T04:24:13;14.70;99.90
48007;DHT22;33771;48.180;11.400;2022-07-10T04:26:38;14.70;99.90
48007;DHT22;33771;48.180;11.400;2022-07-10T04:29:04;14.80;99.90
48007;DHT22;33771;48.180;11.400;2022-07-10T04:31:29;14.90;99.90
48007;DHT22;33771;48.180;11.400;2022-07-10T04:33:55;14.90;99.90
48007;DHT22;33771;48.180;11.400;2022-07-10T04:36:23;15.00;99.90
48007;DHT22;33771;48.180;11.400;2022-07-10T04:38:48;15.10;99.90
48007;DHT22;33771;48.180;11.400;2022-07-10T04:41:14;15.20;99.90
48007;DHT22;33771;48.180;11.400;2022-07-10T04:43:39;15.20;99.90
48007;DHT22;33771;48.180;11.400;2022-07-10T04:46:05;15.20;99.90
48007;DHT22;33771;48.180;11.400;2022-07-10T04:48:32;15.20;99.90
48007;DHT22;33771;48.180;11.400;2022-07-10T04:50:58;15.20;99.90
48007;DHT22;33771;48.180;11.400;2022-07-10T04:53:23;15.20;99.90
48007;DHT22;33771;48.180;11.400;2022-07-10T04:55:50;15.20;99.90
48007;DHT22;33771;48.180;11.400;2022-07-10T04:58:15;15.20;99.90
48007;DHT22;33771;48.180;11.400;2022-07-10T05:00:41;15.10;99.90
48007;DHT22;33771;48.180;11.400;2022-07-10T05:03:06;15.10;99.90
48007;DHT22;33771;48.180;11.400;2022-07-10T05:05:32;15.10;99.90
48007;DHT22;33771;48.180;11.400;2022-07-10T05:07:58;15.10;99.90
48007;DHT22;33771;48.180;11.400;2022-07-10T05:10:24;15.10;99.90
48007;DHT22;33771;48.180;11.400;2022-07-10T05:12:50;15.10;99.90
48007;DHT22;33771;48.180;11.400;2022-07-10T05:15:15;15.10;99.90
48007;DHT22;33771;48.180;11.400;2022-07-10T05:17:41;15.10;99.90
48007;DHT22;33771;48.180;11.400;2022-07-10T05:20:07;15.10;99.90
48007;DHT22;33771;48.180;11.400;2022-07-10T05:22:32;15.10;99.90
48007;DHT22;33771;48.180;11.400;2022-07-10T05:24:58;15.10;99.90
48007;DHT22;33771;48.180;11.400;2022-07-10T05:27:24;15.10;99.90
48007;DHT22;33771;48.180;11.400;2022-07-10T05:29:50;15.10;99.90
48007;DHT22;33771;48.180;11.400;2022-07-10T05:32:16;15.10;99.90
48007;DHT22;33771;48.180;11.400;2022-07-10T05:34:41;15.10;99.90
48007;DHT22;33771;48.180;11.400;2022-07-10T05:37:09;15.10;99.90
48007;DHT22;33771;48.180;11.400;2022-07-10T05:39:35;15.10;99.90
48007;DHT22;33771;48.180;11.400;2022-07-10T05:42:00;15.20;99.90
48007;DHT22;33771;48.180;11.400;2022-07-10T05:44:26;15.20;99.90
48007;DHT22;33771;48.180;11.400;2022-07-10T05:46:51;15.20;99.90
48007;DHT22;33771;48.180;11.400;2022-07-10T05:49:17;15.30;99.90
48007;DHT22;33771;48.180;11.400;2022-07-10T05:51:43;15.40;99.90
48007;DHT22;33771;48.180;11.400;2022-07-10T05:54:08;15.50;99.90
48007;DHT22;33771;48.180;11.400;2022-07-10T05:56:34;15.50;99.90
48007;DHT22;33771;48.180;11.400;2022-07-10T05:59:00;15.40;99.90
48007;DHT22;33771;48.180;11.400;2022-07-10T06:01:25;15.40;99.90
48007;DHT22;33771;48.180;11.400;2022-07-10T06:03:51;15.40;99.90
48007;DHT22;33771;48.180;11.400;2022-07-10T06:06:17;15.40;99.90
48007;DHT22;33771;48.180;11.400;2022-07-10T06:08:44;15.40;99.90
48007;DHT22;33771;48.180;11.400;2022-07-10T06:11:10;15.40;99.90
48007;DHT22;33771;48.180;11.400;2022-07-10T06:13:36;15.40;99.90
48007;DHT22;33771;48.180;11.400;2022-07-10T06:16:02;15.40;99.90
48007;DHT22;33771;48.180;11.400;2022-07-10T06:18:29;15.40;99.90
48007;DHT22;33771;48.180;11.400;2022-07-10T06:20:54;15.40;99.90
48007;DHT22;33771;48.180;11.400;2022-07-10T06:23:20;15.40;99.90
48007;DHT22;33771;48.180;11.400;2022-07-10T06:25:46;15.50;99.90
48007;DHT22;33771;48.180;11.400;2022-07-10T06:28:11;15.50;99.90
48007;DHT22;33771;48.180;11.400;2022-07-10T06:30:37;15.60;99.90
48007;DHT22;33771;48.180;11.400;2022-07-10T06:33:02;15.60;99.90
48007;DHT22;33771;48.180;11.400;2022-07-10T06:35:28;15.70;99.90
48007;DHT22;33771;48.180;11.400;2022-07-10T06:37:53;15.70;99.90
48007;DHT22;33771;48.180;11.400;2022-07-10T06:40:20;15.70;99.90
48007;DHT22;33771;48.180;11.400;2022-07-10T06:42:46;15.70;99.90
48007;DHT22;33771;48.180;11.400;2022-07-10T06:45:11;15.80;99.90
48007;DHT22;33771;48.180;11.400;2022-07-10T06:47:37;15.90;99.90
48007;DHT22;33771;48.180;11.400;2022-07-10T06:50:23;15.90;99.90
48007;DHT22;33771;48.180;11.400;2022-07-10T06:52:49;15.90;99.90
48007;DHT22;33771;48.180;11.400;2022-07-10T06:55:15;15.90;99.90
48007;DHT22;33771;48.180;11.400;2022-07-10T06:57:43;16.00;99.90
48007;DHT22;33771;48.180;11.400;2022-07-10T07:00:09;16.10;99.90
48007;DHT22;33771;48.180;11.400;2022-07-10T07:02:35;16.30;99.90
48007;DHT22;33771;48.180;11.400;2022-07-10T07:05:01;16.30;99.90
48007;DHT22;33771;48.180;11.400;2022-07-10T07:07:27;16.40;99.90
48007;DHT22;33771;48.180;11.400;2022-07-10T07:09:52;16.40;99.90
48007;DHT22;33771;48.180;11.400;2022-07-10T07:12:18;16.30;99.90
48007;DHT22;33771;48.180;11.400;2022-07-10T07:14:44;16.20;99.90
48007;DHT22;33771;48.180;11.400;2022-07-10T07:17:10;16.20;99.90
48007;DHT22;33771;48.180;11.400;2022-07-10T07:19:37;16.10;99.90
48007;DHT22;33771;48.180;11.400;2022-07-10T07:22:23;16.10;99.90
48007;DHT22;33771;48.180;11.400;2022-07-10T07:25:08;16.30;99.90
48007;DHT22;33771;48.180;11.400;2022-07-10T07:27:35;16.30;99.90
48007;DHT22;33771;48.180;11.400;2022-07-10T07:30:10;16.20;99.90
48007;DHT22;33771;48.180;11.400;2022-07-10T07:32:36;16.30;99.90
48007;DHT22;33771;48.180;11.400;2022-07-10T07:35:03;16.30;99.90
48007;DHT22;33771;48.180;11.400;2022-07-10T07:37:35;16.40;99.90
48007;DHT22;33771;48.180;11.400;2022-07-10T07:40:03;16.40;99.90
48007;DHT22;33771;48.180;11.400;2022-07-10T07:42:29;16.40;99.90
48007;DHT22;33771;48.180;11.400;2022-07-10T07:44:54;16.50;99.90
48007;DHT22;33771;48.180;11.400;2022-07-10T07:47:20;16.50;99.90
48007;DHT22;33771;48.180;11.400;2022-07-10T07:49:45;16.60;99.90
48007;DHT22;33771;48.180;11.400;2022-07-10T07:52:11;16.60;99.90
48007;DHT22;33771;48.180;11.400;2022-07-10T07:54:36;16.60;99.90
48007;DHT22;33771;48.180;11.400;2022-07-10T07:57:02;16.60;99.90
48007;DHT22;33771;48.180;11.400;2022-07-10T07:59:27;16.70;99.90
48007;DHT22;33771;48.180;11.400;2022-07-10T08:01:53;16.70;99.90
48007;DHT22;33771;48.180;11.400;2022-07-10T08:04:18;17.00;99.90
48007;DHT22;33771;48.180;11.400;2022-07-10T08:06:45;17.20;99.90
48007;DHT22;33771;48.180;11.400;2022-07-10T08:09:10;17.40;99.90
48007;DHT22;33771;48.180;11.400;2022-07-10T08:11:36;17.60;99.90
48007;DHT22;33771;48.180;11.400;2022-07-10T08:14:01;17.70;99.90
48007;DHT22;33771;48.180;11.400;2022-07-10T08:16:27;17.90;99.90
48007;DHT22;33771;48.180;11.400;2022-07-10T08:18:53;18.10;99.90
48007;DHT22;33771;48.180;11.400;2022-07-10T08:21:18;18.30;99.90
48007;DHT22;33771;48.180;11.400;2022-07-10T08:23:44;18.30;99.90
48007;DHT22;33771;48.180;11.400;2022-07-10T08:26:09;18.20;99.90
48007;DHT22;33771;48.180;11.400;2022-07-10T08:28:35;18.20;99.90
48007;DHT22;33771;48.180;11.400;2022-07-10T08:31:00;18.20;99.90
48007;DHT22;33771;48.180;11.400;2022-07-10T08:33:26;18.10;99.90
48007;DHT22;33771;48.180;11.400;2022-07-10T08:35:52;18.10;99.90
48007;DHT22;33771;48.180;11.400;2022-07-10T08:38:18;18.10;99.90
48007;DHT22;33771;48.180;11.400;2022-07-10T08:40:44;18.00;99.90
48007;DHT22;33771;48.180;11.400;2022-07-10T08:43:11;17.80;99.90
48007;DHT22;33771;48.180;11.400;2022-07-10T08:45:36;17.70;99.90
48007;DHT22;33771;48.180;11.400;2022-07-10T08:48:07;17.60;99.90
48007;DHT22;33771;48.180;11.400;2022-07-10T08:50:34;17.50;99.90
48007;DHT22;33771;48.180;11.400;2022-07-10T08:53:13;17.50;99.90
48007;DHT22;33771;48.180;11.400;2022-07-10T08:55:41;17.60;99.90
48007;DHT22;33771;48.180;11.400;2022-07-10T08:58:08;17.70;99.90
48007;DHT22;33771;48.180;11.400;2022-07-10T09:00:35;17.80;99.90
48007;DHT22;33771;48.180;11.400;2022-07-10T09:03:01;18.00;99.90
48007;DHT22;33771;48.180;11.400;2022-07-10T09:05:26;18.20;99.90
48007;DHT22;33771;48.180;11.400;2022-07-10T09:07:53;18.30;99.90
48007;DHT22;33771;48.180;11.400;2022-07-10T09:10:21;18.30;99.90
48007;DHT22;33771;48.180;11.400;2022-07-10T09:12:53;18.50;99.90
48007;DHT22;33771;48.180;11.400;2022-07-10T09:15:21;18.50;99.90
48007;DHT22;33771;48.180;11.400;2022-07-10T09:17:57;18.40;99.90
48007;DHT22;33771;48.180;11.400;2022-07-10T09:20:31;18.30;99.90
48007;DHT22;33771;48.180;11.400;2022-07-10T09:23:14;18.40;99.90
48007;DHT22;33771;48.180;11.400;2022-07-10T09:25:40;18.50;99.90
48007;DHT22;33771;48.180;11.400;2022-07-10T09:28:06;18.60;99.90
48007;DHT22;33771;48.180;11.400;2022-07-10T09:30:36;18.80;99.90
48007;DHT22;33771;48.180;11.400;2022-07-10T09:44:01;19.00;99.90
48007;DHT22;33771;48.180;11.400;2022-07-10T09:49:06;18.70;99.90
48007;DHT22;33771;48.180;11.400;2022-07-10T09:51:42;19.00;99.90
48007;DHT22;33771;48.180;11.400;2022-07-10T09:54:10;19.40;99.90
48007;DHT22;33771;48.180;11.400;2022-07-10T09:59:14;20.30;99.90
48007;DHT22;33771;48.180;11.400;2022-07-10T10:01:44;20.70;99.90
48007;DHT22;33771;48.180;11.400;2022-07-10T10:04:11;20.90;99.90
48007;DHT22;33771;48.180;11.400;2022-07-10T10:06:39;21.00;99.90
48007;DHT22;33771;48.180;11.400;2022-07-10T10:09:38;21.00;99.90
48007;DHT22;33771;48.180;11.400;2022-07-10T10:12:14;21.10;99.90
48007;DHT22;33771;48.180;11.400;2022-07-10T10:14:41;21.30;99.90
48007;DHT22;33771;48.180;11.400;2022-07-10T10:17:07;21.60;99.90
48007;DHT22;33771;48.180;11.400;2022-07-10T10:19:33;21.80;99.90
48007;DHT22;33771;48.180;11.400;2022-07-10T10:22:18;21.50;99.90
48007;DHT22;33771;48.180;11.400;2022-07-10T10:24:45;21.20;99.90
48007;DHT22;33771;48.180;11.400;2022-07-10T10:27:12;21.20;99.90
48007;DHT22;33771;48.180;11.400;2022-07-10T10:29:38;21.40;99.90
48007;DHT22;33771;48.180;11.400;2022-07-10T10:32:05;21.50;99.90
48007;DHT22;33771;48.180;11.400;2022-07-10T10:34:46;21.40;99.90
48007;DHT22;33771;48.180;11.400;2022-07-10T10:39:53;20.90;99.90
48007;DHT22;33771;48.180;11.400;2022-07-10T10:48:05;20.70;99.90
48007;DHT22;33771;48.180;11.400;2022-07-10T10:50:49;20.70;99.90
48007;DHT22;33771;48.180;11.400;2022-07-10T10:58:56;20.80;99.90
48007;DHT22;33771;48.180;11.400;2022-07-10T11:04:13;20.80;99.90
48007;DHT22;33771;48.180;11.400;2022-07-10T11:06:40;20.80;99.90
48007;DHT22;33771;48.180;11.400;2022-07-10T11:09:29;20.70;99.90
48007;DHT22;33771;48.180;11.400;2022-07-10T11:14:27;20.60;99.90
48007;DHT22;33771;48.180;11.400;2022-07-10T11:16:55;20.40;99.90
48007;DHT22;33771;48.180;11.400;2022-07-10T11:19:26;20.10;99.90
48007;DHT22;33771;48.180;11.400;2022-07-10T11:27:55;20.50;99.90
48007;DHT22;33771;48.180;11.400;2022-07-10T11:30:24;20.90;99.90
48007;DHT22;33771;48.180;11.400;2022-07-10T11:32:49;20.80;99.90
48007;DHT22;33771;48.180;11.400;2022-07-10T11:35:16;20.60;99.90
48007;DHT22;33771;48.180;11.400;2022-07-10T11:37:53;20.60;99.90
48007;DHT22;33771;48.180;11.400;2022-07-10T11:40:19;20.80;99.90
48007;DHT22;33771;48.180;11.400;2022-07-10T11:42:51;21.20;99.90
48007;DHT22;33771;48.180;11.400;2022-07-10T11:45:25;21.70;99.90
48007;DHT22;33771;48.180;11.400;2022-07-10T11:47:50;22.00;99.90
48007;DHT22;33771;48.180;11.400;2022-07-10T11:50:16;22.30;99.90
48007;DHT22;33771;48.180;11.400;2022-07-10T11:52:42;22.60;99.90
48007;DHT22;33771;48.180;11.400;2022-07-10T11:55:18;23.00;99.90
48007;DHT22;33771;48.180;11.400;2022-07-10T11:57:46;23.60;99.90
48007;DHT22;33771;48.180;11.400;2022-07-10T12:00:26;23.70;99.90
48007;DHT22;33771;48.180;11.400;2022-07-10T12:02:53;23.40;99.90
48007;DHT22;33771;48.180;11.400;2022-07-10T12:05:38;23.10;99.90
48007;DHT22;33771;48.180;11.400;2022-07-10T12:08:05;22.80;99.90
48007;DHT22;33771;48.180;11.400;2022-07-10T12:10:32;22.60;99.90
48007;DHT22;33771;48.180;11.400;2022-07-10T12:13:13;22.50;99.90
48007;DHT22;33771;48.180;11.400;2022-07-10T12:15:41;22.60;99.90
48007;DHT22;33771;48.180;11.400;2022-07-10T12:18:08;23.00;99.90
48007;DHT22;33771;48.180;11.400;2022-07-10T12:20:35;23.30;99.90
48007;DHT22;33771;48.180;11.400;2022-07-10T12:23:03;23.50;99.90
48007;DHT22;33771;48.180;11.400;2022-07-10T12:25:29;23.90;99.90
48007;DHT22;33771;48.180;11.400;2022-07-10T12:27:58;24.40;99.90
48007;DHT22;33771;48.180;11.400;2022-07-10T12:30:38;24.70;99.90
48007;DHT22;33771;48.180;11.400;2022-07-10T12:33:15;24.40;99.90
48007;DHT22;33771;48.180;11.400;2022-07-10T12:35:57;24.10;99.90
48007;DHT22;33771;48.180;11.400;2022-07-10T12:38:24;24.00;99.90
48007;DHT22;33771;48.180;11.400;2022-07-10T12:40:51;24.00;99.90
48007;DHT22;33771;48.180;11.400;2022-07-10T12:43:31;23.90;99.90
48007;DHT22;33771;48.180;11.400;2022-07-10T12:48:37;24.00;99.90
48007;DHT22;33771;48.180;11.400;2022-07-10T12:51:25;23.80;99.90
48007;DHT22;33771;48.180;11.400;2022-07-10T12:53:51;23.40;99.90
48007;DHT22;33771;48.180;11.400;2022-07-10T12:56:34;23.10;99.90
48007;DHT22;33771;48.180;11.400;2022-07-10T12:59:01;22.90;99.90
48007;DHT22;33771;48.180;11.400;2022-07-10T13:01:28;22.50;99.90
48007;DHT22;33771;48.180;11.400;2022-07-10T13:03:59;22.20;99.90
48007;DHT22;33771;48.180;11.400;2022-07-10T13:06:32;22.10;99.90
48007;DHT22;33771;48.180;11.400;2022-07-10T13:08:58;22.20;99.90
48007;DHT22;33771;48.180;11.400;2022-07-10T13:11:24;22.30;99.90
48007;DHT22;33771;48.180;11.400;2022-07-10T13:13:50;22.20;99.90
48007;DHT22;33771;48.180;11.400;2022-07-10T13:16:16;22.10;99.90
48007;DHT22;33771;48.180;11.400;2022-07-10T13:18:43;22.00;99.90
48007;DHT22;33771;48.180;11.400;2022-07-10T13:21:09;22.00;99.90
48007;DHT22;33771;48.180;11.400;2022-07-10T13:23:36;22.20;99.90
48007;DHT22;33771;48.180;11.400;2022-07-10T13:26:03;22.00;99.90
48007;DHT22;33771;48.180;11.400;2022-07-10T13:28:29;22.00;99.90
48007;DHT22;33771;48.180;11.400;2022-07-10T13:30:55;22.20;99.90
48007;DHT22;33771;48.180;11.400;2022-07-10T13:33:20;22.50;99.90
48007;DHT22;33771;48.180;11.400;2022-07-10T13:35:46;22.40;99.90
48007;DHT22;33771;48.180;11.400;2022-07-10T13:38:13;22.50;99.90
48007;DHT22;33771;48.180;11.400;2022-07-10T13:40:38;22.70;99.60
48007;DHT22;33771;48.180;11.400;2022-07-10T13:43:04;22.50;99.00
48007;DHT22;33771;48.180;11.400;2022-07-10T13:45:34;22.10;99.90
48007;DHT22;33771;48.180;11.400;2022-07-10T13:48:08;21.90;99.90
48007;DHT22;33771;48.180;11.400;2022-07-10T13:50:36;21.60;99.90
48007;DHT22;33771;48.180;11.400;2022-07-10T13:53:02;21.40;99.90
48007;DHT22;33771;48.180;11.400;2022-07-10T13:55:28;21.40;99.90
48007;DHT22;33771;48.180;11.400;2022-07-10T13:57:54;21.30;99.70
48007;DHT22;33771;48.180;11.400;2022-07-10T14:00:19;21.10;99.90
48007;DHT22;33771;48.180;11.400;2022-07-10T14:02:45;20.90;99.90
48007;DHT22;33771;48.180;11.400;2022-07-10T14:05:10;20.80;99.90
48007;DHT22;33771;48.180;11.400;2022-07-10T14:07:36;20.80;99.90
48007;DHT22;33771;48.180;11.400;2022-07-10T14:10:03;20.70;99.90
48007;DHT22;33771;48.180;11.400;2022-07-10T14:12:31;20.70;99.90
48007;DHT22;33771;48.180;11.400;2022-07-10T14:14:57;20.70;99.90
48007;DHT22;33771;48.180;11.400;2022-07-10T14:17:23;20.50;99.90
48007;DHT22;33771;48.180;11.400;2022-07-10T14:19:49;20.50;99.90
48007;DHT22;33771;48.180;11.400;2022-07-10T14:22:16;20.50;99.90
48007;DHT22;33771;48.180;11.400;2022-07-10T14:24:41;20.40;99.90
48007;DHT22;33771;48.180;11.400;2022-07-10T14:27:07;20.40;99.90
48007;DHT22;33771;48.180;11.400;2022-07-10T14:29:33;20.50;99.90
48007;DHT22;33771;48.180;11.400;2022-07-10T14:31:59;20.60;99.90
48007;DHT22;33771;48.180;11.400;2022-07-10T14:34:24;20.50;99.90
48007;DHT22;33771;48.180;11.400;2022-07-10T14:36:51;20.40;99.90
48007;DHT22;33771;48.180;11.400;2022-07-10T14:39:16;20.20;99.90
48007;DHT22;33771;48.180;11.400;2022-07-10T14:41:42;20.30;99.90
48007;DHT22;33771;48.180;11.400;2022-07-10T14:44:07;20.20;99.90
48007;DHT22;33771;48.180;11.400;2022-07-10T14:46:33;20.10;99.90
48007;DHT22;33771;48.180;11.400;2022-07-10T14:48:59;20.20;99.90
48007;DHT22;33771;48.180;11.400;2022-07-10T14:51:25;20.10;99.90
48007;DHT22;33771;48.180;11.400;2022-07-10T14:53:50;20.10;99.90
48007;DHT22;33771;48.180;11.400;2022-07-10T14:56:16;20.10;99.90
48007;DHT22;33771;48.180;11.400;2022-07-10T14:58:42;20.10;99.90
48007;DHT22;33771;48.180;11.400;2022-07-10T15:01:08;20.00;99.90
48007;DHT22;33771;48.180;11.400;2022-07-10T15:03:34;20.10;99.90
48007;DHT22;33771;48.180;11.400;2022-07-10T15:06:00;20.10;99.80
48007;DHT22;33771;48.180;11.400;2022-07-10T15:08:27;20.10;99.90
48007;DHT22;33771;48.180;11.400;2022-07-10T15:10:52;20.10;99.90
48007;DHT22;33771;48.180;11.400;2022-07-10T15:13:18;20.10;99.90
48007;DHT22;33771;48.180;11.400;2022-07-10T15:15:44;20.00;99.90
48007;DHT22;33771;48.180;11.400;2022-07-10T15:18:10;20.00;99.90
48007;DHT22;33771;48.180;11.400;2022-07-10T15:20:36;20.10;99.90
48007;DHT22;33771;48.180;11.400;2022-07-10T15:23:03;20.10;99.90
48007;DHT22;33771;48.180;11.400;2022-07-10T15:25:29;20.00;99.90
48007;DHT22;33771;48.180;11.400;2022-07-10T15:27:55;20.10;99.90
48007;DHT22;33771;48.180;11.400;2022-07-10T15:30:21;20.00;99.70
48007;DHT22;33771;48.180;11.400;2022-07-10T15:32:46;19.90;99.90
48007;DHT22;33771;48.180;11.400;2022-07-10T15:35:13;20.00;99.90
48007;DHT22;33771;48.180;11.400;2022-07-10T15:37:38;20.00;99.60
48007;DHT22;33771;48.180;11.400;2022-07-10T15:40:05;19.90;99.90
48007;DHT22;33771;48.180;11.400;2022-07-10T15:42:30;19.90;99.90
48007;DHT22;33771;48.180;11.400;2022-07-10T15:44:56;19.90;99.90
48007;DHT22;33771;48.180;11.400;2022-07-10T15:47:22;20.00;99.50
48007;DHT22;33771;48.180;11.400;2022-07-10T15:49:48;19.90;99.90
48007;DHT22;33771;48.180;11.400;2022-07-10T15:52:13;19.90;99.90
48007;DHT22;33771;48.180;11.400;2022-07-10T15:54:39;19.90;99.60
48007;DHT22;33771;48.180;11.400;2022-07-10T15:57:05;19.80;99.90
48007;DHT22;33771;48.180;11.400;2022-07-10T15:59:30;19.80;99.90